Pickle Lake Airport
CYPL : now visible

Airfield :











YOU CAN JOIN US ON...

 
LOGIN :

Register | Disclaimer

   EN    FR    IT 

 









Legend :    VFR   Marginal VFR   IFR   Intensive IFR   Very Intensive IFR
Visi :
Ceiling :
>= 8 km
>= 3000ft
5 to 8 km
1000 to 3000 ft
1500m to 5 km
500 to 1000 ft
800 to 1500m
200 to 500 ft
< 800m
< 200 ft
Symbols :   Thunderstorms  Fog  Heavy snow  Heavy precipitations  Wind > 20 kt






- Airport Elevation : 1267 ft
- IATA code : YPL


CYPL - Pickle Lake

CURRENT METAR :
  • 231800Z AUTO 23016G29KT 9SM BKN140 BKN170 23/10 A2939 RMK SLP957 DENSITY ALT 3100FT

EXPIRED METARs :
  • 231700Z AUTO 23022G37KT 9SM BKN150 21/09 A2939 RMK SLP960 DENSITY ALT 2900FT
  • 231655Z AUTO 24026G37KT 9SM BKN150 21/09 A2940 RMK SLP957 DENSITY ALT 2900FT
  • 231600Z AUTO 21016G29KT 9SM FEW100 SCT120 BKN140 20/10 A2940 RMK PRESFR SLP963 DENSITY ALT 2700FT

TAF TAF CYPL
Valid from the 23 at 14:00 until the 24 at 02:00 UTC


231338Z 2314/2402 17012G22KT P6SM SCT080 BKN120
TEMPO 2314/2318 P6SM -SHRA
BECMG 2316/2318 23020G32KT
FM240000 27012KT P6SM -RA SCT020 BKN060 RMK FCST BASED ON AUTO OBS. NXT FCST BY 232000Z
CZWG FIR / North America



MET'MAP, your aeronautical weather chart ! - Copyright ORBIFLY December 2007 - Disclaimer

ORBIFLY MET'MAP TEAM :

Programming & Development : Alexandra Zaïnal
Concept & original design : Baudouin d'Aumeries
Assistance for programming : Marc-Olivier Méhu
Technical & hardware support : Manuel Goepfert

Contact : metmap@orbifly.com




SOURCES & CREDITS :

   NOAA       Earth
Advisory